createdAt,value
2023-05-15T00:01:47.939Z,4.00
2023-05-15T00:04:14.964Z,4.00
2023-05-15T00:06:42.866Z,4.00
2023-05-15T00:09:09.918Z,4.10
2023-05-15T00:11:37.007Z,3.90
2023-05-15T00:14:04.002Z,4.50
2023-05-15T00:16:31.352Z,4.70
2023-05-15T00:18:58.326Z,4.50
2023-05-15T00:21:25.297Z,4.20
2023-05-15T00:23:54.143Z,4.30
2023-05-15T00:26:23.104Z,4.40
2023-05-15T00:28:50.882Z,4.50
2023-05-15T00:31:18.169Z,4.90
2023-05-15T00:33:45.174Z,4.50
2023-05-15T00:36:12.294Z,4.70
2023-05-15T00:38:39.317Z,4.90
2023-05-15T00:41:10.268Z,5.00
2023-05-15T00:43:39.142Z,4.60
2023-05-15T00:46:07.171Z,5.10
2023-05-15T00:48:34.234Z,4.30
2023-05-15T00:51:01.186Z,4.20
2023-05-15T00:53:28.988Z,4.50
2023-05-15T00:55:59.593Z,4.80
2023-05-15T00:58:27.372Z,5.40
2023-05-15T01:00:54.422Z,5.10
2023-05-15T01:03:21.573Z,4.90
2023-05-15T01:05:48.650Z,5.20
2023-05-15T01:08:32.203Z,5.50
2023-05-15T01:10:59.080Z,5.50
2023-05-15T01:13:26.129Z,6.00
2023-05-15T01:15:54.962Z,5.70
2023-05-15T01:18:22.014Z,5.60
2023-05-15T01:21:01.710Z,6.00
2023-05-15T01:24:06.453Z,5.50
2023-05-15T01:26:53.982Z,5.30
2023-05-15T01:29:25.002Z,5.90
2023-05-15T01:31:56.007Z,5.20
2023-05-15T01:34:24.076Z,6.00
2023-05-15T01:36:53.457Z,4.90
2023-05-15T01:39:23.254Z,5.70
2023-05-15T01:42:09.203Z,5.50
2023-05-15T01:44:37.386Z,5.50
2023-05-15T01:47:10.551Z,4.80
2023-05-15T01:49:37.746Z,5.20
2023-05-15T01:52:16.851Z,5.20
2023-05-15T01:54:43.791Z,5.10
2023-05-15T01:57:11.708Z,5.40
2023-05-15T01:59:38.627Z,5.70
2023-05-15T02:02:06.199Z,5.30
2023-05-15T02:04:33.569Z,5.20
2023-05-15T02:07:01.659Z,4.90
2023-05-15T02:09:29.144Z,4.80
2023-05-15T02:11:56.180Z,5.50
2023-05-15T02:14:23.880Z,5.20
2023-05-15T02:16:51.856Z,5.40
2023-05-15T02:19:18.726Z,5.60
2023-05-15T02:21:45.628Z,5.10
2023-05-15T02:24:13.394Z,4.80
2023-05-15T02:27:02.515Z,4.20
2023-05-15T02:29:38.751Z,5.00
2023-05-15T02:32:14.721Z,4.50
2023-05-15T02:35:03.759Z,4.80
2023-05-15T02:37:32.214Z,5.00
2023-05-15T02:39:59.856Z,4.80
2023-05-15T02:42:27.264Z,4.20
2023-05-15T02:44:54.609Z,5.10
2023-05-15T02:47:21.943Z,4.80
2023-05-15T02:49:49.267Z,4.40
2023-05-15T02:52:16.216Z,4.80
2023-05-15T02:54:43.188Z,4.50
2023-05-15T02:57:10.119Z,4.40
2023-05-15T02:59:37.662Z,4.60
2023-05-15T03:02:05.556Z,4.50
2023-05-15T03:04:33.085Z,4.60
2023-05-15T03:07:00.019Z,4.50
2023-05-15T03:09:27.063Z,4.50
2023-05-15T03:11:54.106Z,3.80
2023-05-15T03:14:21.068Z,4.50
2023-05-15T03:16:47.990Z,4.40
2023-05-15T03:19:15.520Z,4.30
2023-05-15T03:21:42.526Z,5.00
2023-05-15T03:24:09.501Z,4.60
2023-05-15T03:26:36.572Z,4.60
2023-05-15T03:29:03.594Z,4.50
2023-05-15T03:31:30.767Z,4.40
2023-05-15T03:33:57.781Z,5.90
2023-05-15T03:36:24.661Z,5.60
2023-05-15T03:38:51.617Z,5.40
2023-05-15T03:41:18.760Z,5.70
2023-05-15T03:43:45.918Z,5.40
2023-05-15T03:46:13.157Z,5.00
2023-05-15T03:48:41.527Z,5.10
2023-05-15T03:51:08.466Z,5.10
2023-05-15T03:53:38.254Z,4.80
2023-05-15T03:56:06.069Z,4.80
2023-05-15T03:58:33.085Z,4.80
2023-05-15T04:01:00.218Z,5.20
2023-05-15T04:03:27.319Z,4.90
2023-05-15T04:05:54.520Z,4.90
2023-05-15T04:08:21.471Z,5.00
2023-05-15T04:10:48.597Z,5.00
2023-05-15T04:13:17.063Z,5.90
2023-05-15T04:15:44.651Z,9.10
2023-05-15T04:18:11.643Z,9.40
2023-05-15T04:20:38.604Z,7.00
2023-05-15T04:23:05.883Z,5.80
2023-05-15T04:25:32.927Z,5.40
2023-05-15T04:27:59.844Z,4.70
2023-05-15T04:30:26.894Z,5.10
2023-05-15T04:32:54.468Z,4.80
2023-05-15T04:35:21.465Z,4.80
2023-05-15T04:37:48.824Z,5.10
2023-05-15T04:40:16.623Z,4.90
2023-05-15T04:42:43.900Z,4.60
2023-05-15T04:45:10.967Z,4.40
2023-05-15T04:47:38.557Z,4.30
2023-05-15T04:50:06.806Z,4.60
2023-05-15T04:52:34.850Z,4.40
2023-05-15T04:55:02.050Z,4.40
2023-05-15T04:57:29.572Z,4.00
2023-05-15T04:59:58.141Z,4.20
2023-05-15T05:02:25.538Z,3.80
2023-05-15T05:04:52.512Z,4.10
2023-05-15T05:07:19.558Z,4.60
2023-05-15T05:09:46.555Z,4.40
2023-05-15T05:12:13.558Z,3.80
2023-05-15T05:14:44.838Z,4.10
2023-05-15T05:17:11.879Z,3.80
2023-05-15T05:19:39.721Z,6.30
2023-05-15T05:22:07.698Z,3.90
2023-05-15T05:24:37.730Z,3.60
2023-05-15T05:27:05.056Z,3.20
2023-05-15T05:29:32.047Z,3.30
2023-05-15T05:31:59.200Z,3.40
2023-05-15T05:34:26.202Z,4.50
2023-05-15T05:36:53.079Z,3.50
2023-05-15T05:39:21.054Z,2.90
2023-05-15T05:41:48.011Z,3.10
2023-05-15T05:44:15.096Z,2.90
2023-05-15T05:46:42.468Z,3.30
2023-05-15T05:49:09.669Z,3.10
2023-05-15T05:51:37.084Z,2.90
2023-05-15T05:54:04.108Z,2.60
2023-05-15T05:56:31.097Z,2.50
2023-05-15T05:58:59.696Z,2.40
2023-05-15T06:01:27.818Z,3.50
2023-05-15T06:03:56.062Z,2.70
2023-05-15T06:06:23.163Z,2.00
2023-05-15T06:08:50.175Z,2.40
2023-05-15T06:11:17.209Z,2.10
2023-05-15T06:13:44.257Z,2.40
2023-05-15T06:16:11.310Z,2.40
2023-05-15T06:18:39.221Z,2.10
2023-05-15T06:21:07.439Z,2.20
2023-05-15T06:23:34.831Z,1.70
2023-05-15T06:26:01.840Z,2.40
2023-05-15T06:28:29.014Z,2.00
2023-05-15T06:30:56.027Z,2.00
2023-05-15T06:33:23.162Z,1.70
2023-05-15T06:35:50.098Z,1.30
2023-05-15T06:38:18.006Z,1.50
2023-05-15T06:40:44.895Z,1.20
2023-05-15T06:43:11.830Z,1.30
2023-05-15T06:45:38.752Z,1.30
2023-05-15T06:48:06.017Z,1.30
2023-05-15T06:50:33.457Z,1.10
2023-05-15T06:53:01.343Z,1.50
2023-05-15T06:55:28.442Z,1.60
2023-05-15T06:57:55.646Z,1.30
2023-05-15T07:00:22.620Z,1.10
2023-05-15T07:02:49.671Z,1.40
2023-05-15T07:05:17.144Z,1.20
2023-05-15T07:07:44.213Z,1.40
2023-05-15T07:10:11.276Z,1.50
2023-05-15T07:12:39.026Z,1.00
2023-05-15T07:15:06.521Z,1.10
2023-05-15T07:17:33.663Z,1.10
2023-05-15T07:20:00.758Z,1.50
2023-05-15T07:22:28.399Z,1.10
2023-05-15T07:24:55.713Z,1.20
2023-05-15T07:27:22.843Z,1.20
2023-05-15T07:29:49.874Z,1.30
2023-05-15T07:32:16.857Z,1.70
2023-05-15T07:34:44.087Z,1.20
2023-05-15T07:37:11.062Z,1.00
2023-05-15T07:39:38.155Z,1.50
2023-05-15T07:42:05.547Z,1.50
2023-05-15T07:44:32.710Z,1.10
2023-05-15T07:46:59.617Z,1.20
2023-05-15T07:49:26.604Z,1.00
2023-05-15T07:51:53.648Z,1.30
2023-05-15T07:54:20.932Z,1.10
2023-05-15T08:00:10.557Z,1.20
2023-05-15T08:02:41.968Z,1.30
2023-05-15T08:05:08.623Z,1.20
2023-05-15T08:07:35.412Z,1.10
2023-05-15T08:10:05.546Z,1.00
2023-05-15T08:12:32.426Z,1.00
2023-05-15T08:14:59.114Z,1.20
2023-05-15T08:17:25.758Z,0.90
2023-05-15T08:19:52.237Z,0.90
2023-05-15T08:22:18.913Z,1.20
2023-05-15T08:24:45.325Z,1.40
2023-05-15T08:27:12.317Z,1.00
2023-05-15T08:37:25.301Z,1.10
2023-05-15T08:39:52.483Z,1.10
2023-05-15T08:50:21.327Z,1.00
2023-05-15T08:52:48.078Z,1.00
2023-05-15T08:55:14.901Z,1.20
2023-05-15T08:57:41.943Z,1.50
2023-05-15T09:00:11.371Z,1.80
2023-05-15T09:02:38.599Z,1.80
2023-05-15T09:05:05.845Z,1.40
2023-05-15T09:07:32.895Z,1.40
2023-05-15T09:10:00.582Z,1.40
2023-05-15T09:12:27.260Z,1.30
2023-05-15T09:15:11.261Z,1.50
2023-05-15T09:17:38.671Z,1.30
2023-05-15T09:20:06.048Z,1.00
2023-05-15T09:22:34.040Z,1.30
2023-05-15T09:25:02.709Z,1.50
2023-05-15T09:27:30.085Z,1.20
2023-05-15T09:30:07.348Z,1.30
2023-05-15T09:32:34.100Z,1.30
2023-05-15T09:35:00.833Z,2.00
2023-05-15T09:37:32.299Z,1.30
2023-05-15T09:40:10.350Z,1.60
2023-05-15T09:42:38.245Z,1.40
2023-05-15T09:45:06.116Z,1.30
2023-05-15T09:47:33.542Z,3.40
2023-05-15T09:50:00.159Z,1.40
2023-05-15T09:52:27.357Z,1.30
2023-05-15T09:54:53.876Z,1.50
2023-05-15T09:57:21.785Z,1.20
2023-05-15T09:59:48.512Z,1.30
2023-05-15T10:02:31.688Z,1.60
2023-05-15T10:04:58.401Z,1.50
2023-05-15T10:07:32.353Z,1.40
2023-05-15T10:09:59.557Z,2.70
2023-05-15T10:12:27.876Z,1.80
2023-05-15T10:14:58.256Z,1.30
2023-05-15T10:17:25.725Z,1.30
2023-05-15T10:19:58.162Z,1.30
2023-05-15T10:22:29.641Z,1.30
2023-05-15T10:25:06.151Z,1.50
2023-05-15T10:27:32.777Z,1.50
2023-05-15T10:29:59.103Z,1.40
2023-05-15T10:32:25.758Z,1.30
2023-05-15T10:34:52.231Z,1.30
2023-05-15T10:37:19.072Z,1.20
2023-05-15T10:39:46.079Z,2.60
2023-05-15T10:42:12.600Z,1.80
2023-05-15T10:44:39.182Z,1.60
2023-05-15T10:47:05.602Z,1.50
2023-05-15T10:49:32.407Z,1.00
2023-05-15T10:52:00.195Z,1.30
2023-05-15T10:54:27.704Z,1.60
2023-05-15T10:56:55.661Z,2.10
2023-05-15T10:59:29.754Z,1.80
2023-05-15T11:01:56.294Z,1.40
2023-05-15T11:04:23.339Z,1.50
2023-05-15T11:06:50.245Z,1.50
2023-05-15T11:09:28.900Z,1.80
2023-05-15T11:11:56.622Z,1.40
2023-05-15T11:14:23.919Z,1.20
2023-05-15T11:16:53.848Z,1.60
2023-05-15T11:19:23.821Z,1.30
2023-05-15T11:22:32.317Z,1.50
2023-05-15T11:25:09.160Z,1.50
2023-05-15T11:27:39.490Z,1.80
2023-05-15T11:30:24.632Z,1.70
2023-05-15T11:33:11.195Z,1.40
2023-05-15T11:35:43.289Z,2.00
2023-05-15T11:38:09.749Z,1.40
2023-05-15T11:46:57.077Z,1.10
2023-05-15T11:49:24.489Z,1.50
2023-05-15T11:51:51.551Z,1.30
2023-05-15T11:54:18.708Z,1.40
2023-05-15T11:56:46.015Z,1.50
2023-05-15T11:59:15.148Z,1.50
2023-05-15T12:01:42.884Z,1.70
2023-05-15T12:04:16.894Z,1.10
2023-05-15T12:06:44.908Z,1.70
2023-05-15T12:09:16.833Z,1.30
2023-05-15T12:11:56.457Z,1.30
2023-05-15T12:14:28.763Z,1.40
2023-05-15T12:17:03.013Z,1.50
2023-05-15T12:19:31.242Z,1.40
2023-05-15T12:21:58.921Z,1.40
2023-05-15T12:24:29.162Z,1.80
2023-05-15T12:26:57.454Z,1.60
2023-05-15T12:29:24.838Z,1.30
2023-05-15T12:31:54.198Z,1.80
2023-05-15T12:34:22.309Z,1.70
2023-05-15T12:36:49.277Z,1.70
2023-05-15T12:39:16.560Z,1.40
2023-05-15T12:41:44.243Z,1.40
2023-05-15T12:44:18.122Z,1.60
2023-05-15T12:46:46.427Z,1.50
2023-05-15T12:49:13.416Z,1.90
2023-05-15T12:51:44.796Z,1.40
2023-05-15T12:56:47.312Z,1.40
2023-05-15T12:59:14.284Z,1.20
2023-05-15T13:01:44.938Z,1.50
2023-05-15T13:04:12.473Z,1.80
2023-05-15T13:06:46.517Z,1.40
2023-05-15T13:09:14.455Z,1.80
2023-05-15T13:11:45.511Z,1.40
2023-05-15T13:16:46.778Z,1.70
2023-05-15T13:19:14.033Z,2.10
2023-05-15T13:21:41.353Z,1.30
2023-05-15T13:24:11.078Z,1.60
2023-05-15T13:26:38.551Z,1.30
2023-05-15T13:29:06.016Z,1.50
2023-05-15T13:31:33.712Z,1.30
2023-05-15T13:34:00.999Z,1.20
2023-05-15T13:36:28.006Z,1.20
2023-05-15T13:38:55.108Z,2.00
2023-05-15T13:41:22.899Z,1.40
2023-05-15T13:43:50.125Z,1.70
2023-05-15T13:46:17.269Z,1.60
2023-05-15T13:48:44.596Z,1.50
2023-05-15T13:51:11.765Z,1.70
2023-05-15T13:53:39.129Z,1.60
2023-05-15T13:56:06.575Z,1.30
2023-05-15T13:58:34.249Z,1.30
2023-05-15T14:01:04.883Z,1.60
2023-05-15T14:03:32.091Z,1.50
2023-05-15T14:05:59.375Z,1.40
2023-05-15T14:08:26.312Z,1.40
2023-05-15T14:10:53.374Z,1.60
2023-05-15T14:13:21.328Z,1.40
2023-05-15T14:15:49.130Z,1.70
2023-05-15T14:18:16.393Z,2.10
2023-05-15T14:20:43.642Z,1.40
2023-05-15T14:23:10.963Z,1.30
2023-05-15T14:25:38.368Z,1.00
2023-05-15T14:28:05.661Z,1.40
2023-05-15T14:30:32.918Z,1.10
2023-05-15T14:33:00.132Z,2.00
2023-05-15T14:35:28.150Z,2.00
2023-05-15T14:37:55.337Z,2.10
2023-05-15T14:40:22.998Z,1.40
2023-05-15T14:42:50.317Z,1.40
2023-05-15T14:45:17.561Z,1.30
2023-05-15T14:47:44.866Z,1.40
2023-05-15T14:50:12.733Z,1.60
2023-05-15T14:52:40.168Z,1.40
2023-05-15T14:55:09.764Z,1.30
2023-05-15T14:57:38.192Z,1.30
2023-05-15T15:00:07.379Z,1.70
2023-05-15T15:02:35.852Z,1.20
2023-05-15T15:05:04.821Z,1.30
2023-05-15T15:07:32.517Z,1.70
2023-05-15T15:09:59.827Z,1.90
2023-05-15T15:12:27.775Z,1.40
2023-05-15T15:14:54.984Z,1.90
2023-05-15T15:17:22.231Z,1.90
2023-05-15T15:19:49.529Z,1.20
2023-05-15T15:22:16.815Z,1.10
2023-05-15T15:24:43.953Z,1.90
2023-05-15T15:27:10.977Z,1.10
2023-05-15T15:29:38.223Z,1.30
2023-05-15T15:32:05.498Z,1.30
2023-05-15T15:34:32.836Z,1.10
2023-05-15T15:37:00.034Z,1.50
2023-05-15T15:39:27.028Z,1.40
2023-05-15T15:41:55.342Z,1.60
2023-05-15T15:44:23.787Z,1.30
2023-05-15T15:46:50.935Z,1.30
2023-05-15T15:49:18.044Z,1.20
2023-05-15T15:51:45.458Z,1.40
2023-05-15T15:54:12.311Z,1.50
2023-05-15T15:56:40.563Z,1.10
2023-05-15T15:59:07.929Z,1.20
2023-05-15T16:01:35.027Z,1.30
2023-05-15T16:04:02.440Z,1.30
2023-05-15T16:06:30.080Z,3.50
2023-05-15T16:08:57.307Z,1.90
2023-05-15T16:11:24.433Z,1.40
2023-05-15T16:13:52.351Z,1.70
2023-05-15T16:16:19.440Z,1.70
2023-05-15T16:18:47.100Z,1.40
2023-05-15T16:21:14.389Z,1.80
2023-05-15T16:23:41.768Z,1.60
2023-05-15T16:26:09.255Z,1.50
2023-05-15T16:28:36.546Z,1.30
2023-05-15T16:31:03.779Z,1.30
2023-05-15T16:33:32.722Z,1.90
2023-05-15T16:36:00.704Z,3.30
2023-05-15T16:38:27.812Z,3.10
2023-05-15T16:40:54.711Z,2.30
2023-05-15T16:43:22.448Z,3.00
2023-05-15T16:45:50.230Z,3.60
2023-05-15T16:48:17.567Z,1.90
2023-05-15T16:50:44.713Z,2.50
2023-05-15T16:53:12.435Z,2.10
2023-05-15T16:55:40.084Z,2.40
2023-05-15T16:58:07.132Z,3.00
2023-05-15T17:00:34.229Z,2.00
2023-05-15T17:03:01.690Z,2.10
2023-05-15T17:05:29.200Z,7.10
2023-05-15T20:16:52.681Z,1.80
2023-05-15T20:19:22.336Z,1.60
2023-05-15T20:21:50.117Z,1.90
2023-05-15T20:24:18.335Z,1.90
2023-05-15T20:26:47.181Z,1.60
2023-05-15T20:29:14.434Z,1.90
2023-05-15T20:31:41.645Z,1.70
2023-05-15T20:34:08.733Z,1.90
2023-05-15T20:36:39.059Z,1.50
2023-05-15T20:39:07.601Z,1.90
2023-05-15T20:41:37.536Z,1.70
2023-05-15T20:44:05.027Z,1.60
2023-05-15T20:46:33.512Z,1.70
2023-05-15T20:49:00.616Z,1.70
2023-05-15T20:51:27.791Z,1.70
2023-05-15T20:53:54.964Z,1.70
2023-05-15T20:56:22.103Z,1.60
2023-05-15T20:58:49.273Z,1.50
2023-05-15T21:01:16.934Z,1.50
2023-05-15T21:03:44.793Z,1.70
2023-05-15T21:06:12.212Z,1.60
2023-05-15T21:08:39.375Z,1.60
2023-05-15T21:11:06.546Z,1.60
2023-05-15T21:13:33.983Z,1.60
2023-05-15T21:16:00.983Z,1.50
2023-05-15T21:18:28.006Z,1.70
2023-05-15T21:20:55.031Z,1.50
2023-05-15T21:23:22.411Z,1.70
2023-05-15T21:25:49.632Z,1.70
2023-05-15T21:28:16.604Z,2.40
2023-05-15T21:30:43.729Z,1.90
2023-05-15T21:33:10.822Z,2.50
2023-05-15T21:35:38.381Z,4.30
2023-05-15T21:38:05.688Z,2.50
2023-05-15T21:40:32.856Z,2.20
2023-05-15T21:42:59.705Z,5.00
2023-05-15T21:45:26.738Z,2.30
2023-05-15T21:47:53.763Z,2.20
2023-05-15T21:50:20.816Z,1.90
2023-05-15T21:52:50.637Z,2.00
2023-05-15T21:55:18.220Z,1.90
2023-05-15T21:57:45.456Z,1.90
2023-05-15T22:00:15.711Z,1.80
2023-05-15T22:02:43.037Z,2.40
2023-05-15T22:05:10.141Z,2.00
2023-05-15T22:07:37.318Z,1.90
2023-05-15T22:10:05.328Z,2.00
2023-05-15T22:12:33.455Z,2.00
2023-05-15T22:15:00.804Z,2.40
2023-05-15T22:17:30.501Z,4.40
2023-05-15T22:20:08.158Z,2.20
2023-05-15T22:22:36.364Z,2.00
2023-05-15T22:25:04.603Z,2.70
2023-05-15T22:27:33.094Z,2.60
2023-05-15T22:30:00.586Z,3.60
2023-05-15T22:32:27.825Z,2.60
2023-05-15T22:34:56.132Z,3.70
2023-05-15T22:37:23.163Z,4.90
2023-05-15T22:39:50.738Z,4.40
2023-05-15T22:42:19.496Z,4.30
2023-05-15T22:44:46.985Z,3.80
2023-05-15T22:47:13.960Z,3.40
2023-05-15T22:49:40.998Z,3.80
2023-05-15T22:52:08.200Z,4.90
2023-05-15T22:54:35.270Z,3.10
2023-05-15T22:57:02.550Z,4.40
2023-05-15T22:59:30.014Z,3.70
2023-05-15T23:01:57.131Z,3.50
2023-05-15T23:04:24.253Z,3.40
2023-05-15T23:06:51.339Z,3.30
2023-05-15T23:09:18.520Z,3.60
2023-05-15T23:11:47.452Z,3.60
2023-05-15T23:14:16.126Z,3.80
2023-05-15T23:16:44.501Z,4.70
2023-05-15T23:19:12.728Z,3.90
2023-05-15T23:21:39.934Z,3.50
2023-05-15T23:24:07.078Z,4.50
2023-05-15T23:26:34.763Z,4.10
2023-05-15T23:29:01.865Z,6.10
2023-05-15T23:31:29.261Z,4.70
2023-05-15T23:33:56.629Z,3.60
2023-05-15T23:36:24.087Z,4.10
2023-05-15T23:38:51.278Z,3.90
2023-05-15T23:41:18.392Z,3.70
2023-05-15T23:43:45.584Z,3.70
2023-05-15T23:46:13.940Z,3.40
2023-05-15T23:48:41.402Z,3.10
2023-05-15T23:51:08.643Z,4.50
2023-05-15T23:53:36.010Z,2.90
2023-05-15T23:56:03.882Z,4.60
2023-05-15T23:58:31.415Z,3.70
